createdAt,value
2019-05-23T00:01:23.415Z,100600.16
2019-05-23T00:10:43.044Z,100604.13
2019-05-23T00:16:52.369Z,100600.36
2019-05-23T00:23:06.983Z,100602.75
2019-05-23T00:25:57.828Z,100598.73
2019-05-23T00:28:41.605Z,100597.61
2019-05-23T00:31:29.980Z,100602.67
2019-05-23T00:37:44.101Z,100603.41
2019-05-23T00:40:27.996Z,100602.44
2019-05-23T00:46:48.763Z,100601.77
2019-05-23T00:49:39.239Z,100604.52
2019-05-23T00:52:42.901Z,100601.62
2019-05-23T00:58:37.399Z,100598.16
2019-05-23T01:01:28.187Z,100599.36
2019-05-23T01:04:13.310Z,100597.70
2019-05-23T01:07:04.157Z,100596.13
2019-05-23T01:09:47.553Z,100594.99
2019-05-23T01:16:07.153Z,100597.03
2019-05-23T01:18:57.811Z,100591.08
2019-05-23T01:28:16.595Z,100584.62
2019-05-23T01:31:02.740Z,100587.41
2019-05-23T01:37:23.149Z,100583.75
2019-05-23T01:40:14.284Z,100583.13
2019-05-23T01:42:58.534Z,100583.80
2019-05-23T01:45:48.942Z,100581.79
2019-05-23T01:48:31.920Z,100575.24
2019-05-23T01:51:15.386Z,100584.19
2019-05-23T01:54:06.104Z,100579.09
2019-05-23T01:56:50.515Z,100576.95
2019-05-23T01:59:41.008Z,100574.77
2019-05-23T02:02:25.109Z,100566.91
2019-05-23T02:08:26.251Z,100566.88
2019-05-23T02:11:37.574Z,100575.11
2019-05-23T02:14:21.481Z,100575.05
2019-05-23T02:17:23.095Z,100566.24
2019-05-23T02:24:02.370Z,100565.14
2019-05-23T02:26:52.812Z,100565.83
2019-05-23T02:32:54.175Z,100557.64
2019-05-23T02:35:44.753Z,100557.92
2019-05-23T02:38:52.701Z,100562.20
2019-05-23T02:42:01.994Z,100556.36
2019-05-23T02:44:47.153Z,100554.88
2019-05-23T02:51:05.198Z,100549.25
2019-05-23T02:56:50.026Z,100546.25
2019-05-23T03:06:19.610Z,100541.41
2019-05-23T03:09:30.871Z,100539.15
2019-05-23T03:12:15.985Z,100542.90
2019-05-23T03:18:17.911Z,100537.19
2019-05-23T03:24:33.382Z,100532.63
2019-05-23T03:31:25.098Z,100526.66
2019-05-23T03:34:31.831Z,100526.11
2019-05-23T03:37:16.929Z,100526.56
2019-05-23T03:40:08.537Z,100525.14
2019-05-23T03:42:52.223Z,100528.20
2019-05-23T03:48:41.532Z,100523.48
2019-05-23T03:51:32.225Z,100522.52
2019-05-23T03:54:15.845Z,100527.33
2019-05-23T04:00:33.851Z,100529.03
2019-05-23T04:06:49.470Z,100523.38
2019-05-23T04:12:43.228Z,100522.55
2019-05-23T04:15:33.592Z,100518.16
2019-05-23T04:18:16.579Z,100526.91
2019-05-23T04:21:07.033Z,100523.31
2019-05-23T04:23:49.594Z,100526.62
2019-05-23T04:26:40.594Z,100524.80
2019-05-23T04:29:24.532Z,100523.80
2019-05-23T04:32:14.998Z,100525.98
2019-05-23T04:34:58.274Z,100520.62
2019-05-23T04:41:12.032Z,100520.59
2019-05-23T04:44:02.387Z,100517.43
2019-05-23T04:46:46.093Z,100516.94
2019-05-23T04:49:36.720Z,100528.76
2019-05-23T04:52:20.977Z,100519.54
2019-05-23T04:58:36.489Z,100524.09
2019-05-23T05:01:27.387Z,100518.45
2019-05-23T05:04:10.858Z,100521.69
2019-05-23T05:07:01.512Z,100522.34
2019-05-23T05:09:44.809Z,100523.53
2019-05-23T05:12:35.453Z,100522.89
2019-05-23T05:15:18.738Z,100521.83
2019-05-23T05:21:12.474Z,100515.11
2019-05-23T05:24:02.932Z,100523.38
2019-05-23T05:26:45.786Z,100532.20
2019-05-23T05:29:36.202Z,100531.11
2019-05-23T05:32:20.289Z,100540.81
2019-05-23T05:35:03.815Z,100537.15
2019-05-23T05:37:54.367Z,100538.09
2019-05-23T05:43:39.575Z,100533.08
2019-05-23T05:46:30.224Z,100538.37
2019-05-23T05:49:13.219Z,100543.75
2019-05-23T05:55:07.619Z,100537.38
2019-05-23T05:57:57.967Z,100540.34
2019-05-23T06:00:59.548Z,100542.77
2019-05-23T06:03:50.458Z,100542.03
2019-05-23T06:06:38.399Z,100535.87
2019-05-23T06:12:57.636Z,100548.64
2019-05-23T06:15:48.804Z,100547.11
2019-05-23T06:18:39.683Z,100546.44
2019-05-23T06:24:50.400Z,100550.87
2019-05-23T06:27:48.864Z,100553.02
2019-05-23T06:30:39.502Z,100554.69
2019-05-23T06:33:24.425Z,100552.84
2019-05-23T06:36:07.694Z,100548.71
2019-05-23T06:38:58.178Z,100555.45
2019-05-23T06:41:41.662Z,100559.17
2019-05-23T06:47:35.316Z,100558.48
2019-05-23T06:50:26.094Z,100557.50
2019-05-23T06:53:09.588Z,100559.78
2019-05-23T06:55:59.978Z,100563.10
2019-05-23T06:58:42.836Z,100555.03
2019-05-23T07:01:33.360Z,100559.38
2019-05-23T07:04:36.127Z,100562.22
2019-05-23T07:07:26.632Z,100555.55
2019-05-23T07:10:09.898Z,100559.20
2019-05-23T07:13:00.290Z,100562.44
2019-05-23T07:15:43.487Z,100558.73
2019-05-23T07:18:33.877Z,100550.38
2019-05-23T07:21:16.648Z,100552.63
2019-05-23T07:27:36.743Z,100554.25
2019-05-23T07:30:21.890Z,100554.69
2019-05-23T07:36:40.828Z,100560.84
2019-05-23T07:39:31.214Z,100560.81
2019-05-23T07:42:14.397Z,100553.50
2019-05-23T07:48:34.254Z,100557.69
2019-05-23T07:51:24.639Z,100561.81
2019-05-23T07:54:33.834Z,100557.44
2019-05-23T07:57:18.657Z,100554.47
2019-05-23T08:03:22.562Z,100563.07
2019-05-23T08:09:18.138Z,100550.91
2019-05-23T08:12:08.578Z,100557.47
2019-05-23T08:14:51.676Z,100558.55
2019-05-23T08:17:43.302Z,100549.14
2019-05-23T08:20:34.090Z,100550.58
2019-05-23T08:23:37.497Z,100550.16
2019-05-23T08:26:41.893Z,100548.14
2019-05-23T08:29:52.550Z,100550.93
2019-05-23T08:32:24.158Z,100559.05
2019-05-23T08:35:34.545Z,100558.59
2019-05-23T08:38:37.560Z,100552.84
2019-05-23T08:41:29.084Z,100551.27
2019-05-23T08:44:39.564Z,100553.00
2019-05-23T08:47:42.605Z,100548.03
2019-05-23T08:50:53.183Z,100540.41
2019-05-23T08:53:56.336Z,100537.61
2019-05-23T08:59:56.227Z,100547.53
2019-05-23T09:02:59.002Z,100545.63
2019-05-23T09:08:52.769Z,100535.78
2019-05-23T09:11:43.927Z,100538.56
2019-05-23T09:14:27.065Z,100540.47
2019-05-23T09:20:45.981Z,100532.65
2019-05-23T09:23:36.344Z,100527.96
2019-05-23T09:26:26.538Z,100531.45
2019-05-23T09:29:09.856Z,100526.61
2019-05-23T09:32:00.402Z,100525.16
2019-05-23T09:34:43.203Z,100528.16
2019-05-23T09:37:26.424Z,100521.09
2019-05-23T09:40:16.993Z,100525.14
2019-05-23T09:42:59.882Z,100524.08
2019-05-23T09:45:50.223Z,100522.41
2019-05-23T09:48:33.716Z,100523.91
2019-05-23T09:51:24.130Z,100515.44
2019-05-23T09:54:07.963Z,100513.03
2019-05-23T09:56:58.583Z,100511.67
2019-05-23T09:59:43.767Z,100517.44
2019-05-23T10:02:34.165Z,100516.53
2019-05-23T10:05:17.398Z,100509.41
2019-05-23T10:08:08.078Z,100503.59
2019-05-23T10:10:50.818Z,100501.31
2019-05-23T10:13:41.179Z,100494.08
2019-05-23T10:16:23.793Z,100506.24
2019-05-23T10:19:14.247Z,100501.91
2019-05-23T10:21:57.234Z,100504.82
2019-05-23T10:24:47.641Z,100498.88
2019-05-23T10:27:31.483Z,100498.08
2019-05-23T10:30:21.981Z,100490.99
2019-05-23T10:33:11.447Z,100490.83
2019-05-23T10:35:59.649Z,100493.72
2019-05-23T10:38:52.611Z,100487.11
2019-05-23T10:41:53.755Z,100479.97
2019-05-23T10:44:44.998Z,100481.58
2019-05-23T10:47:48.269Z,100484.02
2019-05-23T10:50:44.608Z,100476.14
2019-05-23T10:53:42.869Z,100463.53
2019-05-23T10:56:33.604Z,100467.67
2019-05-23T10:59:16.189Z,100463.09
2019-05-23T11:05:13.331Z,100454.77
2019-05-23T11:11:27.490Z,100458.48
2019-05-23T11:17:46.145Z,100443.17
2019-05-23T11:20:36.807Z,100432.61
2019-05-23T11:26:33.695Z,100429.55
2019-05-23T11:29:16.426Z,100426.73
2019-05-23T11:35:17.102Z,100437.53
2019-05-23T11:41:08.994Z,100441.52
2019-05-23T11:43:59.628Z,100431.59
2019-05-23T11:46:43.463Z,100412.32
2019-05-23T11:53:02.084Z,100424.48
2019-05-23T11:55:54.369Z,100425.04
2019-05-23T11:59:01.221Z,100426.16
2019-05-23T12:02:00.119Z,100418.36
2019-05-23T12:07:45.594Z,100408.61
2019-05-23T12:10:36.048Z,100412.66
2019-05-23T12:13:18.969Z,100408.13
2019-05-23T12:19:13.036Z,100402.30
2019-05-23T12:22:03.472Z,100397.13
2019-05-23T12:24:46.223Z,100395.66
2019-05-23T12:27:36.603Z,100396.34
2019-05-23T12:30:20.891Z,100394.98
2019-05-23T12:36:13.388Z,100394.34
2019-05-23T12:42:32.134Z,100378.58
2019-05-23T12:45:22.677Z,100382.58
2019-05-23T12:51:31.881Z,100373.84
2019-05-23T12:54:22.307Z,100373.72
2019-05-23T12:57:25.772Z,100365.94
2019-05-23T13:00:35.598Z,100365.75
2019-05-23T13:03:19.204Z,100366.57
2019-05-23T13:06:09.845Z,100364.59
2019-05-23T13:08:52.813Z,100361.88
2019-05-23T13:11:43.245Z,100356.28
2019-05-23T13:14:26.672Z,100359.47
2019-05-23T13:17:17.179Z,100359.10
2019-05-23T13:20:00.490Z,100352.49
2019-05-23T13:22:50.910Z,100351.83
2019-05-23T13:25:33.520Z,100353.03
2019-05-23T13:28:24.071Z,100346.10
2019-05-23T13:31:07.159Z,100335.13
2019-05-23T13:33:57.530Z,100353.12
2019-05-23T13:36:40.928Z,100337.09
2019-05-23T13:39:23.978Z,100339.78
2019-05-23T13:42:14.483Z,100334.89
2019-05-23T13:44:57.974Z,100333.23
2019-05-23T13:51:17.439Z,100331.13
2019-05-23T13:54:07.836Z,100324.87
2019-05-23T13:56:51.541Z,100319.00
2019-05-23T13:59:42.161Z,100324.96
2019-05-23T14:02:24.886Z,100316.67
2019-05-23T14:08:12.856Z,100320.19
2019-05-23T14:11:01.009Z,100319.09
2019-05-23T14:13:59.640Z,100319.99
2019-05-23T14:20:11.926Z,100316.11
2019-05-23T14:26:31.295Z,100300.53
2019-05-23T14:29:21.661Z,100302.31
2019-05-23T14:35:32.859Z,100298.01
2019-05-23T14:38:30.379Z,100286.91
2019-05-23T14:41:09.974Z,100299.47
2019-05-23T14:43:53.216Z,100292.34
2019-05-23T14:47:02.523Z,100295.03
2019-05-23T14:53:11.671Z,100287.02
2019-05-23T14:56:02.214Z,100290.75
2019-05-23T14:58:45.480Z,100287.66
2019-05-23T15:01:36.259Z,100290.55
2019-05-23T15:04:19.762Z,100281.39
2019-05-23T15:07:10.164Z,100274.55
2019-05-23T15:09:53.678Z,100269.31
2019-05-23T15:12:44.039Z,100281.30
2019-05-23T15:15:27.144Z,100276.70
2019-05-23T15:18:17.814Z,100270.25
2019-05-23T15:21:01.316Z,100264.84
2019-05-23T15:23:51.733Z,100259.26
2019-05-23T15:26:34.677Z,100257.14
2019-05-23T15:29:28.978Z,100263.78
2019-05-23T15:32:29.331Z,100271.52
2019-05-23T15:35:19.757Z,100261.61
2019-05-23T15:38:02.778Z,100256.91
2019-05-23T15:40:53.176Z,100255.09
2019-05-23T15:43:36.281Z,100270.32
2019-05-23T15:46:26.634Z,100259.67
2019-05-23T15:49:11.485Z,100253.80
2019-05-23T15:52:20.717Z,100247.95
2019-05-23T15:55:30.969Z,100243.86
2019-05-23T16:01:46.808Z,100249.38
2019-05-23T16:08:21.999Z,100242.78
2019-05-23T16:11:12.631Z,100235.42
2019-05-23T16:13:55.995Z,100247.70
2019-05-23T16:19:43.303Z,100241.95
2019-05-23T16:22:14.593Z,100243.96
2019-05-23T16:25:05.099Z,100242.81
2019-05-23T16:27:47.855Z,100243.67
2019-05-23T16:33:48.000Z,100236.04
2019-05-23T16:36:38.382Z,100239.80
2019-05-23T16:39:21.943Z,100236.98
2019-05-23T16:45:22.349Z,100235.24
2019-05-23T16:48:12.740Z,100238.83
2019-05-23T16:50:55.508Z,100227.26
2019-05-23T17:00:33.757Z,100232.70
2019-05-23T17:03:42.968Z,100234.58
2019-05-23T17:06:52.170Z,100239.26
2019-05-23T17:13:04.942Z,100233.96
2019-05-23T17:19:28.058Z,100235.47
2019-05-23T17:28:57.304Z,100228.28
2019-05-23T17:35:33.236Z,100214.95
2019-05-23T17:38:23.959Z,100227.39
2019-05-23T17:41:06.705Z,100219.87
2019-05-23T17:43:57.065Z,100209.75
2019-05-23T17:46:40.888Z,100207.48
2019-05-23T17:49:31.624Z,100210.39
2019-05-23T17:52:14.776Z,100212.53
2019-05-23T17:55:05.669Z,100208.77
2019-05-23T17:57:48.484Z,100211.41
2019-05-23T18:03:35.209Z,100207.11
2019-05-23T18:09:31.079Z,100200.25
2019-05-23T18:12:21.635Z,100193.64
2019-05-23T18:15:05.035Z,100197.23
2019-05-23T18:17:58.788Z,100204.22
2019-05-23T18:21:00.341Z,100194.83
2019-05-23T18:23:50.899Z,100193.33
2019-05-23T18:26:34.260Z,100197.70
2019-05-23T18:29:24.789Z,100196.67
2019-05-23T18:32:12.205Z,100193.41
2019-05-23T18:34:56.199Z,100190.86
2019-05-23T18:37:46.695Z,100190.32
2019-05-23T18:40:29.293Z,100198.64
2019-05-23T18:43:19.703Z,100199.25
2019-05-23T18:46:05.883Z,100199.97
2019-05-23T18:48:56.378Z,100202.40
2019-05-23T18:51:40.332Z,100202.63
2019-05-23T18:54:30.759Z,100207.55
2019-05-23T18:57:14.305Z,100211.11
2019-05-23T19:00:16.602Z,100205.00
2019-05-23T19:03:07.190Z,100217.38
2019-05-23T19:05:50.079Z,100209.91
2019-05-23T19:08:40.738Z,100214.64
2019-05-23T19:11:23.759Z,100214.72
2019-05-23T19:14:14.170Z,100220.45
2019-05-23T19:16:57.793Z,100220.27
2019-05-23T19:19:48.326Z,100222.86
2019-05-23T19:22:31.760Z,100222.77
2019-05-23T19:25:22.623Z,100220.11
2019-05-23T19:28:05.868Z,100219.78
2019-05-23T19:34:06.732Z,100219.02
2019-05-23T19:36:57.158Z,100225.61
2019-05-23T19:39:40.483Z,100233.39
2019-05-23T19:42:30.874Z,100232.91
2019-05-23T19:45:14.163Z,100242.89
2019-05-23T19:51:07.198Z,100250.80
2019-05-23T19:53:57.739Z,100251.45
2019-05-23T19:56:41.251Z,100253.17
2019-05-23T19:59:31.715Z,100263.72
2019-05-23T20:09:13.572Z,100263.39
2019-05-23T20:15:28.247Z,100271.66
2019-05-23T20:21:41.921Z,100273.34
2019-05-23T20:24:32.272Z,100271.52
2019-05-23T20:27:35.192Z,100273.77
2019-05-23T20:30:41.249Z,100275.33
2019-05-23T20:33:31.729Z,100271.30
2019-05-23T20:36:15.955Z,100272.70
2019-05-23T20:39:08.292Z,100268.56
2019-05-23T20:41:51.261Z,100274.12
2019-05-23T20:44:41.686Z,100273.94
2019-05-23T20:47:24.872Z,100268.34
2019-05-23T20:53:43.818Z,100262.03
2019-05-23T20:56:34.278Z,100266.09
2019-05-23T20:59:24.637Z,100263.83
2019-05-23T21:02:28.031Z,100259.17
2019-05-23T21:05:18.484Z,100261.14
2019-05-23T21:08:01.819Z,100262.00
2019-05-23T21:10:52.498Z,100256.25
2019-05-23T21:13:36.096Z,100258.96
2019-05-23T21:16:26.510Z,100259.48
2019-05-23T21:19:09.333Z,100261.05
2019-05-23T21:25:27.978Z,100258.19
2019-05-23T21:28:18.374Z,100264.27
2019-05-23T21:31:02.090Z,100266.49
2019-05-23T21:33:53.982Z,100259.61
2019-05-23T21:36:56.850Z,100257.66
2019-05-23T21:39:47.310Z,100256.95
2019-05-23T21:42:44.958Z,100255.62
2019-05-23T21:45:22.525Z,100253.78
2019-05-23T21:48:05.973Z,100249.88
2019-05-23T21:50:56.421Z,100249.00
2019-05-23T21:53:39.664Z,100252.00
2019-05-23T21:56:22.590Z,100241.92
2019-05-23T21:59:25.988Z,100243.63
2019-05-23T22:05:50.709Z,100249.28
2019-05-23T22:08:53.530Z,100244.03
2019-05-23T22:15:15.768Z,100246.02
2019-05-23T22:21:28.561Z,100234.96
2019-05-23T22:24:32.110Z,100241.03
2019-05-23T22:27:35.243Z,100241.14
2019-05-23T22:30:45.531Z,100237.67
2019-05-23T22:33:53.443Z,100235.77
2019-05-23T22:36:57.048Z,100237.85
2019-05-23T22:40:07.744Z,100239.93
2019-05-23T22:43:20.573Z,100236.98
2019-05-23T22:49:33.009Z,100228.78
2019-05-23T22:52:43.286Z,100231.42
2019-05-23T22:55:45.804Z,100231.52
2019-05-23T22:58:48.659Z,100231.52
2019-05-23T23:01:58.920Z,100234.98
2019-05-23T23:05:01.529Z,100234.90
2019-05-23T23:08:11.756Z,100222.39
2019-05-23T23:11:14.545Z,100224.85
2019-05-23T23:14:24.879Z,100221.45
2019-05-23T23:17:27.890Z,100219.33
2019-05-23T23:20:38.150Z,100222.55
2019-05-23T23:23:41.522Z,100223.51
2019-05-23T23:26:51.829Z,100219.98
2019-05-23T23:29:55.117Z,100220.72
2019-05-23T23:33:05.393Z,100223.18
2019-05-23T23:36:08.224Z,100214.38
2019-05-23T23:38:59.481Z,100211.54
2019-05-23T23:42:02.902Z,100205.66
2019-05-23T23:45:24.643Z,100204.50
2019-05-23T23:48:34.284Z,100202.39
2019-05-23T23:51:36.261Z,100205.31
2019-05-23T23:54:46.831Z,100198.12
2019-05-23T23:57:56.170Z,100197.14
